< < Back
Terminal Aerodrome Forecast


Current Version              Previous Versions:   1  2  3  4  5  6  7  8  9  

Terminal Aerodrome Forecast

510
FTUS42 KGSP 281700
TAFAND
TAF
KAND 281724Z 2818/2918 29012G22KT P6SM FEW050
     FM290100 31007KT P6SM FEW250=

Latest METAR

004
SAUS70 KWBC 282000
MTRAND
METAR KAND 281956Z AUTO 28015G22KT 10SM CLR 33/16 A2986 RMK AO2 SLP100
T03280156


USA.gov is the U.S. government's official web portal to all federal, state and local government web resources and services.